Time;durP1;ratioP1;P1;durP2;ratioP2;P2;SDS_P1;SDS_P2;PMS_P1;PMS_P2;Temp;Humidity;BMP_temperature;BMP_pressure;BME280_temperature;BME280_humidity;BME280_pressure;Samples;Min_cycle;Max_cycle;Signal;HPM_P1;HPM_P2
2023/07/09 00:02:08;;;;;;;;;;;;;;;26.32;38.39;101415.72;2291447;77;51513;-76
2023/07/09 00:05:11;;;;;;;;;;;;;;;26.33;38.40;101416.02;2291326;77;50424;-76
2023/07/09 00:08:14;;;;;;;;;;;;;;;26.31;38.38;101416.75;2267325;77;52413;-76
2023/07/09 00:11:16;;;;;;;;;;;;;;;26.32;38.42;101426.04;2285676;77;50753;-76
2023/07/09 00:14:17;;;;;;;;;;;;;;;26.31;38.38;101418.10;2278178;78;51429;-76
2023/07/09 00:17:20;;;;;;;;;;;;;;;26.31;38.40;101416.75;2270495;77;50297;-76
2023/07/09 00:20:21;;;;;;;;;;;;;;;26.32;38.42;101424.68;2253813;79;51535;-76
2023/07/09 00:23:23;;;;;;;;;;;;;;;26.32;38.38;101418.43;2206426;79;51658;-75
2023/07/09 00:26:26;;;;;;;;;;;;;;;26.31;38.41;101414.03;2230625;79;51440;-76
2023/07/09 00:29:27;;;;;;;;;;;;;;;26.31;38.37;101420.81;2253668;79;50354;-75
2023/07/09 00:32:29;;;;;;;;;;;;;;;26.31;38.40;101420.81;2253698;79;50671;-75
2023/07/09 00:35:30;;;;;;;;;;;;;;;26.31;38.39;101418.10;2230627;79;51693;-75
2023/07/09 00:38:38;;;;;;;;;;;;;;;26.30;38.37;101407.78;2253559;79;51428;-75
2023/07/09 00:41:35;;;;;;;;;;;;;;;26.29;38.36;101407.48;2250617;76;22291;-76
2023/07/09 00:44:37;;;;;;;;;;;;;;;26.29;38.37;101412.38;2291649;77;52597;-76
2023/07/09 00:47:45;;;;;;;;;;;;;;;26.28;38.33;101403.95;2243208;77;52267;-76
2023/07/09 00:50:48;;;;;;;;;;;;;;;26.28;38.33;101395.81;2291441;77;50997;-76
2023/07/09 00:53:50;;;;;;;;;;;;;;;26.29;38.30;101404.24;2291473;77;51556;-76
2023/07/09 00:56:52;;;;;;;;;;;;;;;26.28;38.30;101398.52;2291224;76;50484;-76
2023/07/09 00:59:55;;;;;;;;;;;;;;;26.27;38.30;101390.05;2267678;77;51260;-75
2023/07/09 01:02:58;;;;;;;;;;;;;;;26.27;38.28;101383.27;2291347;77;50469;-75
2023/07/09 01:05:59;;;;;;;;;;;;;;;26.28;38.29;101389.52;2291394;77;51544;-76
2023/07/09 01:09:02;;;;;;;;;;;;;;;26.27;38.33;101387.34;2291150;77;51636;-76
2023/07/09 01:12:04;;;;;;;;;;;;;;;26.26;38.30;101381.63;2257967;77;49613;-76
2023/07/09 01:15:07;;;;;;;;;;;;;;;26.28;38.32;101384.95;2253830;78;51478;-76
2023/07/09 01:18:10;;;;;;;;;;;;;;;26.27;38.28;101383.80;2253542;78;51514;-76
2023/07/09 01:21:15;;;;;;;;;;;;;;;26.27;38.32;101394.13;2253782;78;50318;-77
2023/07/09 01:24:35;;;;;;;;;;;;;;;26.27;38.27;101394.66;2254025;78;22479;-76
2023/07/09 01:27:38;;;;;;;;;;;;;;;26.27;38.30;101393.30;2253906;77;24758;-76
2023/07/09 01:30:41;;;;;;;;;;;;;;;26.26;38.31;101395.72;2253866;78;51584;-76
2023/07/09 01:33:44;;;;;;;;;;;;;;;26.25;38.28;101396.22;2253770;77;50703;-76
2023/07/09 01:36:46;;;;;;;;;;;;;;;26.25;38.25;101396.22;2230498;79;52691;-76
2023/07/09 01:39:49;;;;;;;;;;;;;;;26.26;38.25;101398.43;2235880;77;51536;-76
2023/07/09 01:42:51;;;;;;;;;;;;;;;26.25;38.31;101400.28;2290826;77;51599;-76
2023/07/09 01:45:53;;;;;;;;;;;;;;;26.25;38.30;101403.53;2291542;77;51498;-76
2023/07/09 01:48:54;;;;;;;;;;;;;;;26.25;38.28;101401.64;2291173;77;50390;-76
2023/07/09 01:51:56;;;;;;;;;;;;;;;26.25;38.31;101399.45;2267932;77;50773;-76
2023/07/09 01:54:58;;;;;;;;;;;;;;;26.24;38.30;101397.27;2291440;77;51546;-76
2023/07/09 01:57:59;;;;;;;;;;;;;;;26.25;38.27;101397.57;2291285;77;50733;-77
2023/07/09 02:01:01;;;;;;;;;;;;;;;26.24;38.33;101383.71;2267588;77;52576;-74
2023/07/09 02:04:02;;;;;;;;;;;;;;;26.23;38.29;101386.13;2267726;77;51620;-75
2023/07/09 02:07:05;;;;;;;;;;;;;;;26.23;38.29;101379.34;2267882;77;50278;-75
2023/07/09 02:10:07;;;;;;;;;;;;;;;26.23;38.29;101384.77;2260246;77;50698;-75
2023/07/09 02:13:08;;;;;;;;;;;;;;;26.24;38.29;101387.78;2285614;77;50237;-76
2023/07/09 02:16:10;;;;;;;;;;;;;;;26.23;38.25;101396.98;2265775;77;50243;-74
2023/07/09 02:19:12;;;;;;;;;;;;;;;26.24;38.29;101389.67;2289661;77;50740;-75
2023/07/09 02:22:13;;;;;;;;;;;;;;;26.23;38.26;101396.98;2289788;77;50279;-75
2023/07/09 02:25:15;;;;;;;;;;;;;;;26.23;38.26;101388.84;2241097;77;51737;-75
2023/07/09 02:28:17;;;;;;;;;;;;;;;26.23;38.27;101389.34;2265650;77;52242;-76
2023/07/09 02:31:19;;;;;;;;;;;;;;;26.23;38.25;101393.41;2289632;77;50406;-76
2023/07/09 02:34:25;;;;;;;;;;;;;;;26.22;38.26;101398.01;2289563;77;51519;-75
2023/07/09 02:37:25;;;;;;;;;;;;;;;26.22;38.26;101398.01;2289341;77;22327;-76
2023/07/09 02:40:26;;;;;;;;;;;;;;;26.22;38.26;101399.37;2266118;77;52509;-77
2023/07/09 02:43:28;;;;;;;;;;;;;;;26.21;38.24;101405.85;2285852;77;50446;-76
2023/07/09 02:46:29;;;;;;;;;;;;;;;26.21;38.25;101400.43;2265415;77;49854;-76
2023/07/09 02:49:31;;;;;;;;;;;;;;;26.21;38.23;101393.64;2265698;77;51697;-77
2023/07/09 02:52:33;;;;;;;;;;;;;;;26.21;38.24;101403.67;2265746;77;51776;-76
2023/07/09 02:55:34;;;;;;;;;;;;;;;26.22;38.25;101401.25;2289662;77;50773;-76
2023/07/09 02:58:36;;;;;;;;;;;;;;;26.21;38.22;101398.24;2289388;77;50699;-76
2023/07/09 03:01:37;;;;;;;;;;;;;;;26.20;38.21;101396.06;2265702;77;51525;-76
2023/07/09 03:04:39;;;;;;;;;;;;;;;26.20;38.23;101396.56;2265524;77;51525;-77
2023/07/09 03:07:41;;;;;;;;;;;;;;;26.20;38.24;101401.48;2265502;77;51519;-76
2023/07/09 03:10:42;;;;;;;;;;;;;;;26.20;38.24;101400.63;2281013;77;50654;-77
2023/07/09 03:13:44;;;;;;;;;;;;;;;26.20;38.23;101408.27;2238097;78;52478;-77
2023/07/09 03:16:45;;;;;;;;;;;;;;;26.20;38.26;101421.83;2253897;78;51328;-77
2023/07/09 03:19:47;;;;;;;;;;;;;;;26.20;38.23;101414.19;2253813;79;50261;-77
2023/07/09 03:22:48;;;;;;;;;;;;;;;26.20;38.23;101409.63;2253763;79;50176;-77
2023/07/09 03:25:50;;;;;;;;;;;;;;;26.20;38.24;101411.48;2254664;79;51612;-76
2023/07/09 03:28:52;;;;;;;;;;;;;;;26.19;38.23;101410.66;2253586;79;50490;-76
2023/07/09 03:31:54;;;;;;;;;;;;;;;26.19;38.23;101417.97;2253741;79;51580;-76
2023/07/09 03:34:55;;;;;;;;;;;;;;;26.18;38.22;101418.50;2253754;79;51500;-76
2023/07/09 03:37:57;;;;;;;;;;;;;;;26.18;38.22;101415.78;2253541;79;50373;-76
2023/07/09 03:40:59;;;;;;;;;;;;;;;26.18;38.24;101425.28;2265189;77;51555;-77
2023/07/09 03:44:00;;;;;;;;;;;;;;;26.19;38.24;101419.33;2268033;77;50203;-76
2023/07/09 03:47:02;;;;;;;;;;;;;;;26.19;38.25;101417.44;2291115;77;50234;-76
2023/07/09 03:50:05;;;;;;;;;;;;;;;26.18;38.23;101414.43;2242971;77;51178;-76
2023/07/09 03:53:07;;;;;;;;;;;;;;;26.19;38.25;101420.15;2268058;77;50704;-77
2023/07/09 03:56:09;;;;;;;;;;;;;;;26.19;38.25;101429.64;2267701;77;51437;-76
2023/07/09 03:59:10;;;;;;;;;;;;;;;26.18;38.26;101423.92;2291333;77;51582;-76
2023/07/09 04:02:12;;;;;;;;;;;;;;;26.18;38.26;101425.28;2267661;77;53188;-77
2023/07/09 04:05:14;;;;;;;;;;;;;;;26.18;38.28;101427.99;2291460;77;51430;-76
2023/07/09 04:08:15;;;;;;;;;;;;;;;26.18;38.28;101433.42;2291170;76;51614;-77
2023/07/09 04:11:17;;;;;;;;;;;;;;;26.19;38.28;101425.58;2273256;76;51614;-76
2023/07/09 04:14:19;;;;;;;;;;;;;;;26.19;38.25;101431.53;2237263;77;52496;-77
2023/07/09 04:17:22;;;;;;;;;;;;;;;26.19;38.26;101432.89;2289414;77;50747;-76
2023/07/09 04:20:23;;;;;;;;;;;;;;;26.18;38.24;101438.84;2289838;77;22379;-76
2023/07/09 04:23:25;;;;;;;;;;;;;;;26.19;38.28;101440.49;2265740;77;50171;-76
2023/07/09 04:26:27;;;;;;;;;;;;;;;26.19;38.28;101445.92;2265473;77;51689;-77
2023/07/09 04:29:29;;;;;;;;;;;;;;;26.19;38.27;101436.42;2289600;77;50397;-76
2023/07/09 04:32:31;;;;;;;;;;;;;;;26.20;38.29;101434.54;2265545;77;51530;-76
2023/07/09 04:35:32;;;;;;;;;;;;;;;26.18;38.29;101440.20;2289550;77;51438;-76
2023/07/09 04:38:34;;;;;;;;;;;;;;;26.20;38.33;101438.61;2240762;77;51678;-76
2023/07/09 04:41:36;;;;;;;;;;;;;;;26.19;38.29;101433.71;2257239;77;50287;-77
2023/07/09 04:44:37;;;;;;;;;;;;;;;26.21;38.29;101438.41;2278688;77;50287;-76
2023/07/09 04:47:39;;;;;;;;;;;;;;;26.24;37.67;101437.97;2278037;77;50732;-76
2023/07/09 04:50:40;;;;;;;;;;;;;;;26.24;37.61;101437.97;2232751;78;50941;-77
2023/07/09 04:53:42;;;;;;;;;;;;;;;26.21;37.41;101440.30;2256949;78;51456;-76
2023/07/09 04:56:47;;;;;;;;;;;;;;;26.24;37.34;101437.97;2256821;78;51499;-76
2023/07/09 04:59:49;;;;;;;;;;;;;;;26.28;37.29;101439.22;2278154;77;51528;-77
2023/07/09 05:02:51;;;;;;;;;;;;;;;26.35;37.24;101435.09;2256723;78;51019;-76
2023/07/09 05:05:52;;;;;;;;;;;;;;;26.39;37.13;101428.73;2256912;78;50375;-75
2023/07/09 05:08:54;;;;;;;;;;;;;;;26.46;37.00;101431.72;2277453;77;50406;-76
2023/07/09 05:11:56;;;;;;;;;;;;;;;26.54;37.04;101440.67;2280308;77;50401;-76
2023/07/09 05:14:57;;;;;;;;;;;;;;;26.64;36.76;101442.38;2256853;77;51652;-75
2023/07/09 05:17:59;;;;;;;;;;;;;;;26.69;36.47;101436.64;2256760;78;50364;-76
2023/07/09 05:21:00;;;;;;;;;;;;;;;26.75;36.42;101440.35;2278201;77;50417;-75
2023/07/09 05:24:02;;;;;;;;;;;;;;;26.79;36.67;101439.38;2278203;77;50443;-76
2023/07/09 05:27:04;;;;;;;;;;;;;;;26.81;36.51;101446.25;2227199;78;51717;-76
2023/07/09 05:30:06;;;;;;;;;;;;;;;26.84;36.44;101444.98;2257079;78;50271;-75
2023/07/09 05:33:07;;;;;;;;;;;;;;;26.87;36.43;101441.83;2278149;77;50300;-76
2023/07/09 05:36:15;;;;;;;;;;;;;;;26.91;36.41;101448.49;2256781;78;50404;-75
2023/07/09 05:39:12;;;;;;;;;;;;;;;26.92;36.46;101448.78;2273973;77;22301;-75
2023/07/09 05:42:14;;;;;;;;;;;;;;;26.99;36.45;101448.22;2247094;77;50087;-76
2023/07/09 05:45:16;;;;;;;;;;;;;;;27.03;36.27;101445.38;2289540;77;50275;-76
2023/07/09 05:48:17;;;;;;;;;;;;;;;27.06;36.29;101449.01;2289311;77;50328;-76
2023/07/09 05:51:21;;;;;;;;;;;;;;;27.11;36.18;101446.47;2265496;77;51353;-76
2023/07/09 05:54:22;;;;;;;;;;;;;;;27.18;36.13;101445.59;2266304;77;24775;-76
2023/07/09 05:57:24;;;;;;;;;;;;;;;27.19;36.08;101442.67;2289313;77;51452;-76
2023/07/09 06:00:25;;;;;;;;;;;;;;;27.23;36.11;101449.34;2265272;77;51498;-76
2023/07/09 06:03:27;;;;;;;;;;;;;;;27.28;36.00;101445.93;2256989;77;51225;-76
2023/07/09 06:06:29;;;;;;;;;;;;;;;27.25;36.02;101450.45;2265488;77;51431;-76
2023/07/09 06:09:31;;;;;;;;;;;;;;;27.32;36.02;101454.78;2289588;77;51475;-76
2023/07/09 06:12:33;;;;;;;;;;;;;;;27.38;35.90;101442.19;2288496;77;50300;-76
2023/07/09 06:15:34;;;;;;;;;;;;;;;27.43;35.80;101443.70;2267035;77;51670;-76
2023/07/09 06:18:36;;;;;;;;;;;;;;;27.46;35.80;101454.16;2230923;79;50364;-76
2023/07/09 06:21:37;;;;;;;;;;;;;;;27.51;35.69;101448.88;2259813;77;50231;-75
2023/07/09 06:24:39;;;;;;;;;;;;;;;27.54;35.67;101450.29;2269686;77;50309;-76
2023/07/09 06:27:41;;;;;;;;;;;;;;;27.55;35.74;101448.72;2234883;76;50964;-76
2023/07/09 06:30:42;;;;;;;;;;;;;;;27.61;35.68;101451.06;2267352;77;50659;-75
2023/07/09 06:33:44;;;;;;;;;;;;;;;27.63;35.66;101456.30;2277223;76;50275;-76
2023/07/09 06:36:46;;;;;;;;;;;;;;;27.65;35.57;101458.27;2268677;77;50776;-76
2023/07/09 06:39:47;;;;;;;;;;;;;;;27.68;35.49;101453.73;2244031;77;52448;-75
2023/07/09 06:42:49;;;;;;;;;;;;;;;27.69;35.49;101458.10;2231407;79;51523;-76
2023/07/09 06:45:55;;;;;;;;;;;;;;;27.70;35.48;101458.42;2258957;77;50669;-76
2023/07/09 06:48:56;;;;;;;;;;;;;;;27.72;35.46;101462.58;2290411;77;50388;-76
2023/07/09 06:51:58;;;;;;;;;;;;;;;27.73;35.43;101465.59;2288160;77;51169;-76
2023/07/09 06:55:00;;;;;;;;;;;;;;;27.75;35.44;101468.09;2230682;77;50407;-77
2023/07/09 06:58:01;;;;;;;;;;;;;;;27.78;35.46;101467.64;2206395;79;50697;-77
2023/07/09 07:01:06;;;;;;;;;;;;;;;27.78;35.46;101469.00;2246087;77;51709;-76
2023/07/09 07:04:08;;;;;;;;;;;;;;;27.78;35.48;101470.36;2244107;77;50996;-77
2023/07/09 07:07:09;;;;;;;;;;;;;;;27.77;35.50;101467.32;2245045;78;51408;-76
2023/07/09 07:10:11;;;;;;;;;;;;;;;27.77;35.50;101472.26;2229754;78;51581;-75
2023/07/09 07:13:13;;;;;;;;;;;;;;;27.79;35.55;101470.66;2235401;78;50754;-76
2023/07/09 07:16:14;;;;;;;;;;;;;;;27.80;35.56;101476.41;2234904;78;51257;-76
2023/07/09 07:19:16;;;;;;;;;;;;;;;27.81;35.59;101471.30;2237315;78;50668;-75
2023/07/09 07:22:18;;;;;;;;;;;;;;;27.82;35.55;101468.87;2255784;78;50092;-75
2023/07/09 07:25:19;;;;;;;;;;;;;;;27.80;35.54;101467.72;2257953;78;51524;-74
2023/07/09 07:28:21;;;;;;;;;;;;;;;27.80;35.63;101467.72;2214849;78;52543;-75
2023/07/09 07:31:22;;;;;;;;;;;;;;;27.78;35.68;101465.75;2237159;78;51632;-76
2023/07/09 07:34:24;;;;;;;;;;;;;;;27.78;35.75;101470.36;2241028;78;51505;-75
2023/07/09 07:37:26;;;;;;;;;;;;;;;27.77;35.83;101463.24;2227404;78;51496;-75
2023/07/09 07:40:27;;;;;;;;;;;;;;;27.76;35.83;101473.83;2230456;78;51052;-74
2023/07/09 07:43:29;;;;;;;;;;;;;;;27.79;35.79;101467.94;2268676;78;50656;-75
2023/07/09 07:46:32;;;;;;;;;;;;;;;27.79;35.86;101467.94;2269351;78;50377;-76
2023/07/09 07:49:34;;;;;;;;;;;;;;;27.80;35.81;101468.25;2213150;79;50755;-76
2023/07/09 07:52:38;;;;;;;;;;;;;;;27.80;35.87;101469.62;2239115;77;52603;-74
2023/07/09 07:55:39;;;;;;;;;;;;;;;27.78;35.92;101464.39;2275261;77;51533;-74
2023/07/09 07:58:41;;;;;;;;;;;;;;;27.78;35.88;101460.31;2272397;76;51492;-75
2023/07/09 08:01:43;;;;;;;;;;;;;;;27.77;36.03;101465.96;2270665;76;51501;-75
2023/07/09 08:04:44;;;;;;;;;;;;;;;27.78;35.99;101460.84;2251390;77;50426;-75
2023/07/09 08:07:46;;;;;;;;;;;;;;;27.80;35.97;101460.09;2267805;77;51420;-74
2023/07/09 08:10:47;;;;;;;;;;;;;;;27.79;36.02;101459.78;2212831;79;51545;-74
2023/07/09 08:13:49;;;;;;;;;;;;;;;27.80;35.99;101466.36;2251872;78;51501;-75
2023/07/09 08:16:51;;;;;;;;;;;;;;;27.79;36.08;101462.49;2234662;78;51018;-75
2023/07/09 08:19:53;;;;;;;;;;;;;;;27.79;36.10;101465.22;2258232;78;51617;-74
2023/07/09 08:22:54;;;;;;;;;;;;;;;27.80;36.11;101469.08;2239605;78;50574;-74
2023/07/09 08:25:56;;;;;;;;;;;;;;;27.79;36.20;101462.49;2234758;78;51433;-74
2023/07/09 08:28:58;;;;;;;;;;;;;;;27.79;36.29;101466.58;2241325;78;51322;-75
2023/07/09 08:32:00;;;;;;;;;;;;;;;27.76;36.30;101468.39;2234861;78;50310;-75
2023/07/09 08:35:01;;;;;;;;;;;;;;;27.73;36.47;101466.95;2258484;78;50311;-73
2023/07/09 08:38:03;;;;;;;;;;;;;;;27.74;36.42;101460.98;2236845;78;51462;-75
2023/07/09 08:41:09;;;;;;;;;;;;;;;27.73;36.51;101462.05;2235037;78;51141;-75
2023/07/09 08:44:29;;;;;;;;;;;;;;;27.69;36.66;101458.92;2260164;78;50029;-76
2023/07/09 08:47:41;;;;;;;;;;;;;;;27.73;36.63;101469.67;2255576;78;51533;-75
2023/07/09 08:50:43;;;;;;;;;;;;;;;27.72;36.64;101455.78;2243079;78;50291;-75
2023/07/09 08:53:46;;;;;;;;;;;;;;;27.71;36.72;101458.18;2251574;78;51477;-75
2023/07/09 08:56:48;;;;;;;;;;;;;;;27.70;36.79;101459.78;2256206;78;50450;-77
2023/07/09 08:59:50;;;;;;;;;;;;;;;27.70;36.79;101455.70;2269985;77;49959;-75
2023/07/09 09:02:52;;;;;;;;;;;;;;;27.69;36.90;101451.30;2264891;78;51456;-76
2023/07/09 09:05:54;;;;;;;;;;;;;;;27.69;36.97;101444.50;2253407;78;50860;-77
2023/07/09 09:08:58;;;;;;;;;;;;;;;27.68;36.94;101447.76;2259575;78;51498;-75
2023/07/09 09:12:10;;;;;;;;;;;;;;;27.69;36.97;101448.05;2255609;78;50303;-77
2023/07/09 09:15:13;;;;;;;;;;;;;;;27.67;37.05;101446.61;2248229;78;50260;-77
2023/07/09 09:18:17;;;;;;;;;;;;;;;27.67;37.04;101445.25;2256399;78;51535;-77
2023/07/09 09:21:23;;;;;;;;;;;;;;;27.67;37.01;101446.61;2274768;78;51502;-74
2023/07/09 09:24:29;;;;;;;;;;;;;;;27.63;37.13;101448.14;2268090;78;51864;-75
2023/07/09 09:27:30;;;;;;;;;;;;;;;27.63;37.12;101445.41;2237659;79;50676;-75
2023/07/09 09:30:32;;;;;;;;;;;;;;;27.59;37.13;101446.38;2193913;79;51069;-75
2023/07/09 09:33:38;;;;;;;;;;;;;;;27.62;37.08;101446.45;2228916;79;50475;-76
2023/07/09 09:36:39;;;;;;;;;;;;;;;27.58;37.14;101454.23;2238835;79;52373;-75
2023/07/09 09:39:41;;;;;;;;;;;;;;;27.57;37.22;101449.34;2239051;79;50837;-75
2023/07/09 09:42:43;;;;;;;;;;;;;;;27.58;37.26;101452.88;2241727;77;51660;-75
2023/07/09 09:45:45;;;;;;;;;;;;;;;27.55;37.29;101454.16;2296885;77;50675;-75
2023/07/09 09:48:47;;;;;;;;;;;;;;;27.54;37.30;101456.59;2296833;76;50663;-76
2023/07/09 09:51:49;;;;;;;;;;;;;;;27.53;37.31;101451.36;2296969;77;50401;-77
2023/07/09 09:54:52;;;;;;;;;;;;;;;27.53;37.27;101450.00;2266050;77;52379;-75
2023/07/09 09:57:53;;;;;;;;;;;;;;;27.52;37.21;101450.53;2296872;77;50696;-76
2023/07/09 10:00:55;;;;;;;;;;;;;;;27.51;37.24;101448.88;2281811;77;50173;-76
2023/07/09 10:03:58;;;;;;;;;;;;;;;27.50;37.23;101442.30;2251526;78;51566;-75
2023/07/09 10:07:01;;;;;;;;;;;;;;;27.50;37.22;101448.56;2218092;79;51209;-77
2023/07/09 10:10:03;;;;;;;;;;;;;;;27.49;37.18;101455.59;2239002;79;51591;-76
2023/07/09 10:13:12;;;;;;;;;;;;;;;27.49;37.14;101452.88;2239047;79;50683;-76
2023/07/09 10:16:21;;;;;;;;;;;;;;;27.47;37.12;101454.98;2257515;77;50520;-76
2023/07/09 10:19:28;;;;;;;;;;;;;;;27.46;37.13;101447.86;2218380;79;50088;-75
2023/07/09 10:22:34;;;;;;;;;;;;;;;27.46;37.10;101448.72;2271122;78;51608;-75
2023/07/09 10:25:40;;;;;;;;;;;;;;;27.45;37.08;101449.76;2237764;78;50269;-76
2023/07/09 10:28:43;;;;;;;;;;;;;;;27.45;37.08;101452.48;2271282;78;50620;-76
2023/07/09 10:31:49;;;;;;;;;;;;;;;27.43;37.09;101450.50;2247335;78;51500;-76
2023/07/09 10:34:58;;;;;;;;;;;;;;;27.43;37.12;101441.52;2268856;78;51492;-75
2023/07/09 10:38:01;;;;;;;;;;;;;;;27.43;37.13;101450.50;2307654;77;50135;-76
2023/07/09 10:41:05;;;;;;;;;;;;;;;27.41;37.18;101439.05;2307658;77;50313;-75
2023/07/09 10:44:20;;;;;;;;;;;;;;;27.44;37.17;101444.56;2269953;78;22371;-76
2023/07/09 10:47:32;;;;;;;;;;;;;;;27.44;37.22;101445.92;2269541;78;51452;-75
2023/07/09 10:50:35;;;;;;;;;;;;;;;27.42;37.14;101438.52;2214077;78;50333;-75
2023/07/09 10:53:41;;;;;;;;;;;;;;;27.39;37.12;101440.33;2269761;78;51491;-75
2023/07/09 10:56:42;;;;;;;;;;;;;;;27.39;37.13;101434.89;2247350;79;51518;-76
2023/07/09 10:59:44;;;;;;;;;;;;;;;27.37;37.09;101433.73;2251763;77;51539;-76
2023/07/09 11:02:46;;;;;;;;;;;;;;;27.38;37.09;101433.20;2257292;78;50402;-76
2023/07/09 11:05:47;;;;;;;;;;;;;;;27.39;37.12;101430.81;2274294;78;51515;-76
2023/07/09 11:08:49;;;;;;;;;;;;;;;27.38;37.08;101424.52;2252885;78;52567;-77
2023/07/09 11:11:52;;;;;;;;;;;;;;;27.39;37.12;101429.45;2274452;78;50489;-76
2023/07/09 11:14:58;;;;;;;;;;;;;;;27.37;37.18;101421.51;2274326;78;51468;-75
2023/07/09 11:18:00;;;;;;;;;;;;;;;27.39;37.18;101432.17;2273670;78;50312;-75
2023/07/09 11:21:03;;;;;;;;;;;;;;;27.37;37.21;101425.59;2252842;78;52418;-76
2023/07/09 11:24:06;;;;;;;;;;;;;;;27.37;37.26;101425.59;2274290;78;52347;-75
2023/07/09 11:27:09;;;;;;;;;;;;;;;27.38;37.29;101425.88;2252954;78;50775;-76
2023/07/09 11:30:19;;;;;;;;;;;;;;;27.36;37.35;101417.14;2270059;78;51523;-77
2023/07/09 11:33:27;;;;;;;;;;;;;;;27.36;37.34;101415.78;2267506;77;50693;-76
2023/07/09 11:36:30;;;;;;;;;;;;;;;27.37;37.35;101409.28;2307529;77;51598;-76
2023/07/09 11:39:32;;;;;;;;;;;;;;;27.36;37.40;101407.63;2251751;79;50354;-76
2023/07/09 11:42:34;;;;;;;;;;;;;;;27.37;37.31;101402.48;2274406;78;51497;-76
2023/07/09 11:45:36;;;;;;;;;;;;;;;27.37;37.29;101401.12;2274195;78;49989;-76
2023/07/09 11:48:38;;;;;;;;;;;;;;;27.35;37.27;101393.19;2248258;78;50643;-76
2023/07/09 11:51:41;;;;;;;;;;;;;;;27.34;37.31;101394.78;2278282;78;50274;-77
2023/07/09 11:54:42;;;;;;;;;;;;;;;27.37;37.23;101392.97;2275075;78;51457;-76
2023/07/09 11:57:46;;;;;;;;;;;;;;;27.35;37.23;101395.08;2250894;78;51576;-77
2023/07/09 12:00:52;;;;;;;;;;;;;;;27.35;37.22;101392.36;2262028;78;50702;-75
2023/07/09 12:03:53;;;;;;;;;;;;;;;27.36;37.18;101387.25;2264138;78;51530;-76
2023/07/09 12:06:57;;;;;;;;;;;;;;;27.35;37.16;101378.77;2271632;78;50287;-77
2023/07/09 12:09:59;;;;;;;;;;;;;;;27.34;37.25;101382.55;2270557;77;51452;-75
2023/07/09 12:13:00;;;;;;;;;;;;;;;27.35;37.29;101382.84;2276769;77;50248;-77
2023/07/09 12:16:02;;;;;;;;;;;;;;;27.33;37.43;101380.38;2274414;77;51446;-76
2023/07/09 12:19:04;;;;;;;;;;;;;;;27.37;37.35;101379.38;2245879;77;50728;-76
2023/07/09 12:22:06;;;;;;;;;;;;;;;27.35;37.45;101367.91;2248315;77;52454;-77
2023/07/09 12:25:09;;;;;;;;;;;;;;;27.35;37.52;101371.44;2270288;77;50747;-77
2023/07/09 12:28:14;;;;;;;;;;;;;;;27.35;37.57;101363.83;2268527;77;51772;-76
2023/07/09 12:31:16;;;;;;;;;;;;;;;27.38;37.57;101362.55;2267078;77;51619;-77
2023/07/09 12:34:18;;;;;;;;;;;;;;;27.36;37.61;101360.07;2245833;77;52491;-76
2023/07/09 12:37:20;;;;;;;;;;;;;;;27.35;37.69;101357.03;2275514;77;51402;-76
2023/07/09 12:40:22;;;;;;;;;;;;;;;27.35;37.79;101354.31;2274571;77;50071;-77
2023/07/09 12:43:26;;;;;;;;;;;;;;;27.35;37.95;101358.39;2274607;76;50606;-76
2023/07/09 12:46:28;;;;;;;;;;;;;;;27.35;38.00;101355.67;2239519;77;51783;-76
2023/07/09 12:49:31;;;;;;;;;;;;;;;27.37;38.03;101350.84;2292574;76;50824;-75
2023/07/09 12:52:32;;;;;;;;;;;;;;;27.37;38.00;101349.48;2266710;78;51517;-77
2023/07/09 12:55:35;;;;;;;;;;;;;;;27.35;38.10;101348.87;2246405;78;52559;-76
2023/07/09 12:58:38;;;;;;;;;;;;;;;27.38;38.15;101343.52;2233276;78;52611;-77
2023/07/09 13:01:39;;;;;;;;;;;;;;;27.37;38.17;101337.27;2276433;77;50342;-76
2023/07/09 13:04:41;;;;;;;;;;;;;;;27.38;38.12;101334.01;2244250;79;51490;-77
2023/07/09 13:07:43;;;;;;;;;;;;;;;27.39;38.11;101328.89;2253756;77;50078;-75
2023/07/09 13:10:45;;;;;;;;;;;;;;;27.35;38.21;101324.42;2207299;79;51303;-76
2023/07/09 13:13:56;;;;;;;;;;;;;;;27.36;38.16;101322.84;2207150;79;52378;-77
2023/07/09 13:17:09;;;;;;;;;;;;;;;27.37;38.22;101327.75;2230957;79;50705;-78
2023/07/09 13:20:10;;;;;;;;;;;;;;;27.38;38.19;101325.32;2231586;79;50311;-76
2023/07/09 13:23:14;;;;;;;;;;;;;;;27.40;38.19;101324.58;2253912;78;50268;-75
2023/07/09 13:26:16;;;;;;;;;;;;;;;27.40;38.22;101327.30;2230418;79;51807;-75
2023/07/09 13:29:18;;;;;;;;;;;;;;;27.42;38.23;101327.91;2253889;78;50677;-75
2023/07/09 13:32:20;;;;;;;;;;;;;;;27.41;38.26;101326.76;2280392;77;50328;-75
2023/07/09 13:35:21;;;;;;;;;;;;;;;27.39;38.34;101313.95;2288561;77;51498;-76
2023/07/09 13:38:23;;;;;;;;;;;;;;;27.42;38.31;101309.41;2265562;77;49433;-76
2023/07/09 13:41:25;;;;;;;;;;;;;;;27.42;38.29;101317.03;2289856;77;51515;-76
2023/07/09 13:44:27;;;;;;;;;;;;;;;27.44;38.27;101312.20;2289829;77;51442;-76
2023/07/09 13:47:29;;;;;;;;;;;;;;;27.43;38.31;101324.12;2289567;77;50804;-77
2023/07/09 13:50:30;;;;;;;;;;;;;;;27.42;38.34;101317.03;2241222;77;51703;-76
2023/07/09 13:53:32;;;;;;;;;;;;;;;27.43;38.34;101318.68;2289651;77;51522;-76
2023/07/09 13:56:34;;;;;;;;;;;;;;;27.44;38.34;101318.17;2265637;77;51464;-76
2023/07/09 13:59:36;;;;;;;;;;;;;;;27.44;38.32;101319.53;2289715;77;51511;-76
2023/07/09 14:02:37;;;;;;;;;;;;;;;27.43;38.35;101320.04;2258111;77;52362;-76
2023/07/09 14:05:39;;;;;;;;;;;;;;;27.45;38.31;101315.22;2291556;77;51545;-75
2023/07/09 14:08:41;;;;;;;;;;;;;;;27.44;38.37;101316.28;2291637;77;51450;-75
2023/07/09 14:11:43;;;;;;;;;;;;;;;27.46;38.37;101315.53;2291708;77;51622;-75
2023/07/09 14:14:45;;;;;;;;;;;;;;;27.44;38.34;101302.69;2267881;77;52705;-75
2023/07/09 14:17:47;;;;;;;;;;;;;;;27.45;38.35;101301.63;2291408;77;50584;-75
2023/07/09 14:20:48;;;;;;;;;;;;;;;27.45;38.39;101297.55;2291600;76;50453;-75
2023/07/09 14:23:50;;;;;;;;;;;;;;;27.46;38.40;101299.23;2268198;77;50661;-75
2023/07/09 14:26:52;;;;;;;;;;;;;;;27.48;38.40;101301.70;2242583;77;51317;-77
2023/07/09 14:29:54;;;;;;;;;;;;;;;27.48;38.39;101297.09;2257906;77;51528;-77
2023/07/09 14:32:57;;;;;;;;;;;;;;;27.51;38.36;101291.22;2270049;77;51626;-76
2023/07/09 14:35:59;;;;;;;;;;;;;;;27.49;38.40;101290.61;2266626;77;50396;-75
2023/07/09 14:39:00;;;;;;;;;;;;;;;27.50;38.43;101294.16;2255314;77;49603;-75
2023/07/09 14:42:03;;;;;;;;;;;;;;;27.51;38.43;101294.45;2260820;77;50295;-75
2023/07/09 14:45:06;;;;;;;;;;;;;;;27.52;38.38;101294.77;2267916;77;51632;-75
2023/07/09 14:48:15;;;;;;;;;;;;;;;27.51;38.46;101293.94;2291806;77;50457;-75
2023/07/09 14:51:17;;;;;;;;;;;;;;;27.49;38.47;101286.53;2267580;77;52336;-76
2023/07/09 14:54:20;;;;;;;;;;;;;;;27.50;38.49;101284.64;2291821;76;51380;-76
2023/07/09 14:57:23;;;;;;;;;;;;;;;27.50;38.50;101278.67;2292077;77;51582;-73
2023/07/09 15:00:24;;;;;;;;;;;;;;;27.53;38.50;101276.02;2291923;77;50684;-74
2023/07/09 15:03:26;;;;;;;;;;;;;;;27.54;38.78;101273.09;2255394;77;51576;-76
2023/07/09 15:06:28;;;;;;;;;;;;;;;27.53;38.94;101279.56;2265960;77;50483;-76
2023/07/09 15:09:29;;;;;;;;;;;;;;;27.54;38.86;101277.17;2289994;77;50299;-75
2023/07/09 15:12:32;;;;;;;;;;;;;;;27.56;39.02;101278.28;2289977;77;50859;-75
2023/07/09 15:15:34;;;;;;;;;;;;;;;27.58;39.01;101269.38;2289781;77;50614;-75
2023/07/09 15:18:36;;;;;;;;;;;;;;;27.57;39.14;101265.83;2266116;77;51384;-77
2023/07/09 15:21:38;;;;;;;;;;;;;;;27.57;39.30;101263.11;2290723;77;51867;-76
2023/07/09 15:24:39;;;;;;;;;;;;;;;27.56;39.10;101261.44;2290734;77;50406;-76
2023/07/09 15:27:41;;;;;;;;;;;;;;;27.59;39.13;101262.86;2266237;77;51091;-75
2023/07/09 15:30:43;;;;;;;;;;;;;;;27.58;39.33;101251.16;2280772;77;51543;-74
2023/07/09 15:33:44;;;;;;;;;;;;;;;27.58;39.38;101251.16;2285909;76;50735;-76
2023/07/09 15:36:48;;;;;;;;;;;;;;;27.61;39.20;101245.80;2278287;78;50355;-75